الصفحة الرئيسية
METAR-TAF:

METAR-TAF

مطار :

Narrandera, أستراليا

دائرة عرض: 34-42-08S, خط طول: 146-30-44E, ارتفاع: 144 متر

مراقبة الطقس الحالي

تاريخ ووقت الإصدار 32 دقيقة قبل الساعة 00:00UTC
ريح 10 عقدة من الشمال
درجة الحرارة 20°درجة مئوية
الرطوبة 49%
ضغط 1025 hPa
الرؤية 10 كم أو أكثر

METAR: YNAR 200000Z AUTO 01010KT 9999 // NCD 20/09 Q1025

زمن: 10:32 (00:32 UTC)


TAF: مفقودة

أرصاد الطقس والتوقعات من أكثر من 4000 مطار (تقارير الطقس للمطار METAR والتنبؤ بالطقس بالمطارTAF).

المحطات المتاحة هي النقط الصفراء والحمراء على الخريطة.

حرك المؤشر فوق النقطة لمعرفة اسم المحطة.

ثم انقر لمعرفة أرصاد وتوقعات الطقس.

لتغيير الخارطة: اضغط على الأزرار الخضراء مع رمز الصليب الأسود للتكبير. على الزر الأخضر مع شرطة للتصغير، أو على الأسهم الخضراء للخرائط المجاورة.


METAR-TAF: